sensor_id;sensor_type;location;lat;lon;timestamp;P1;durP1;ratioP1;P2;durP2;ratioP2
39924;SDS011;25592;49.986;11.618;2022-09-03T00:02:12;2.53;;;1.00;;
39924;SDS011;25592;49.986;11.618;2022-09-03T00:04:46;1.92;;;0.93;;
39924;SDS011;25592;49.986;11.618;2022-09-03T00:08:10;2.40;;;1.00;;
39924;SDS011;25592;49.986;11.618;2022-09-03T00:14:04;1.90;;;1.08;;
39924;SDS011;25592;49.986;11.618;2022-09-03T00:16:58;1.63;;;0.80;;
39924;SDS011;25592;49.986;11.618;2022-09-03T00:19:52;2.75;;;1.00;;
39924;SDS011;25592;49.986;11.618;2022-09-03T00:22:43;1.55;;;0.80;;
39924;SDS011;25592;49.986;11.618;2022-09-03T00:25:33;3.22;;;1.08;;
39924;SDS011;25592;49.986;11.618;2022-09-03T00:28:35;1.23;;;0.88;;
39924;SDS011;25592;49.986;11.618;2022-09-03T00:31:31;3.47;;;0.93;;
39924;SDS011;25592;49.986;11.618;2022-09-03T00:34:37;3.58;;;1.13;;
39924;SDS011;25592;49.986;11.618;2022-09-03T00:37:25;2.42;;;1.38;;
39924;SDS011;25592;49.986;11.618;2022-09-03T00:40:23;2.30;;;1.10;;
39924;SDS011;25592;49.986;11.618;2022-09-03T00:46:41;4.82;;;1.15;;
39924;SDS011;25592;49.986;11.618;2022-09-03T00:49:52;6.82;;;1.20;;
39924;SDS011;25592;49.986;11.618;2022-09-03T01:12:46;2.28;;;1.00;;
39924;SDS011;25592;49.986;11.618;2022-09-03T01:18:43;4.38;;;1.20;;
39924;SDS011;25592;49.986;11.618;2022-09-03T01:21:45;2.42;;;0.95;;
39924;SDS011;25592;49.986;11.618;2022-09-03T01:25:08;2.10;;;1.20;;
39924;SDS011;25592;49.986;11.618;2022-09-03T01:40:21;1.70;;;1.00;;
39924;SDS011;25592;49.986;11.618;2022-09-03T01:46:31;2.20;;;1.13;;
39924;SDS011;25592;49.986;11.618;2022-09-03T01:49:26;3.15;;;1.10;;
39924;SDS011;25592;49.986;11.618;2022-09-03T01:56:01;1.95;;;1.00;;
39924;SDS011;25592;49.986;11.618;2022-09-03T01:58:53;2.15;;;0.93;;
39924;SDS011;25592;49.986;11.618;2022-09-03T02:08:02;2.88;;;1.20;;
39924;SDS011;25592;49.986;11.618;2022-09-03T02:10:54;3.97;;;1.20;;
39924;SDS011;25592;49.986;11.618;2022-09-03T02:13:49;2.97;;;1.02;;
39924;SDS011;25592;49.986;11.618;2022-09-03T02:16:38;3.55;;;1.92;;
39924;SDS011;25592;49.986;11.618;2022-09-03T02:19:25;2.72;;;1.23;;
39924;SDS011;25592;49.986;11.618;2022-09-03T02:22:11;4.88;;;1.65;;
39924;SDS011;25592;49.986;11.618;2022-09-03T02:24:57;1.77;;;1.00;;
39924;SDS011;25592;49.986;11.618;2022-09-03T02:27:43;2.63;;;1.25;;
39924;SDS011;25592;49.986;11.618;2022-09-03T02:30:30;3.83;;;1.30;;
39924;SDS011;25592;49.986;11.618;2022-09-03T02:33:15;4.13;;;1.63;;
39924;SDS011;25592;49.986;11.618;2022-09-03T02:36:02;1.55;;;1.05;;
39924;SDS011;25592;49.986;11.618;2022-09-03T02:38:48;2.42;;;1.30;;
39924;SDS011;25592;49.986;11.618;2022-09-03T02:41:34;3.25;;;1.20;;
39924;SDS011;25592;49.986;11.618;2022-09-03T02:44:27;2.47;;;1.27;;
39924;SDS011;25592;49.986;11.618;2022-09-03T02:47:21;2.57;;;1.20;;
39924;SDS011;25592;49.986;11.618;2022-09-03T02:50:09;2.28;;;1.20;;
39924;SDS011;25592;49.986;11.618;2022-09-03T02:52:54;1.85;;;1.00;;
39924;SDS011;25592;49.986;11.618;2022-09-03T02:55:40;1.85;;;1.00;;
39924;SDS011;25592;49.986;11.618;2022-09-03T02:58:25;2.05;;;1.10;;
39924;SDS011;25592;49.986;11.618;2022-09-03T03:01:11;3.00;;;1.30;;
39924;SDS011;25592;49.986;11.618;2022-09-03T03:04:08;2.60;;;1.00;;
39924;SDS011;25592;49.986;11.618;2022-09-03T03:06:53;4.32;;;1.60;;
39924;SDS011;25592;49.986;11.618;2022-09-03T03:09:38;2.58;;;1.30;;
39924;SDS011;25592;49.986;11.618;2022-09-03T03:12:24;5.03;;;1.33;;
39924;SDS011;25592;49.986;11.618;2022-09-03T03:15:10;2.65;;;1.23;;
39924;SDS011;25592;49.986;11.618;2022-09-03T03:17:55;2.80;;;1.30;;
39924;SDS011;25592;49.986;11.618;2022-09-03T03:20:41;3.63;;;1.20;;
39924;SDS011;25592;49.986;11.618;2022-09-03T03:23:27;3.50;;;1.17;;
39924;SDS011;25592;49.986;11.618;2022-09-03T03:26:15;2.17;;;1.20;;
39924;SDS011;25592;49.986;11.618;2022-09-03T03:29:03;3.70;;;1.42;;
39924;SDS011;25592;49.986;11.618;2022-09-03T03:31:48;2.78;;;1.20;;
39924;SDS011;25592;49.986;11.618;2022-09-03T03:34:34;5.97;;;1.20;;
39924;SDS011;25592;49.986;11.618;2022-09-03T03:37:19;3.78;;;1.25;;
39924;SDS011;25592;49.986;11.618;2022-09-03T03:40:05;4.22;;;1.17;;
39924;SDS011;25592;49.986;11.618;2022-09-03T03:42:51;2.75;;;1.10;;
39924;SDS011;25592;49.986;11.618;2022-09-03T03:45:37;1.75;;;1.10;;
39924;SDS011;25592;49.986;11.618;2022-09-03T03:48:22;2.38;;;1.33;;
39924;SDS011;25592;49.986;11.618;2022-09-03T03:51:09;3.17;;;1.58;;
39924;SDS011;25592;49.986;11.618;2022-09-03T03:53:54;3.20;;;1.40;;
39924;SDS011;25592;49.986;11.618;2022-09-03T03:56:45;2.28;;;0.90;;
39924;SDS011;25592;49.986;11.618;2022-09-03T03:59:39;2.60;;;1.25;;
39924;SDS011;25592;49.986;11.618;2022-09-03T04:02:24;2.47;;;0.98;;
39924;SDS011;25592;49.986;11.618;2022-09-03T04:05:10;3.22;;;1.38;;
39924;SDS011;25592;49.986;11.618;2022-09-03T04:07:59;4.88;;;1.40;;
39924;SDS011;25592;49.986;11.618;2022-09-03T04:10:45;2.85;;;1.10;;
39924;SDS011;25592;49.986;11.618;2022-09-03T04:13:32;2.10;;;1.17;;
39924;SDS011;25592;49.986;11.618;2022-09-03T04:16:20;2.58;;;1.40;;
39924;SDS011;25592;49.986;11.618;2022-09-03T04:19:07;6.97;;;1.92;;
39924;SDS011;25592;49.986;11.618;2022-09-03T04:21:52;1.67;;;1.00;;
39924;SDS011;25592;49.986;11.618;2022-09-03T04:24:37;1.92;;;1.20;;
39924;SDS011;25592;49.986;11.618;2022-09-03T04:27:23;1.52;;;0.93;;
39924;SDS011;25592;49.986;11.618;2022-09-03T04:30:08;1.65;;;1.00;;
39924;SDS011;25592;49.986;11.618;2022-09-03T04:32:54;2.50;;;1.20;;
39924;SDS011;25592;49.986;11.618;2022-09-03T04:35:39;2.47;;;1.23;;
39924;SDS011;25592;49.986;11.618;2022-09-03T04:38:27;2.38;;;1.48;;
39924;SDS011;25592;49.986;11.618;2022-09-03T04:41:14;2.80;;;1.40;;
39924;SDS011;25592;49.986;11.618;2022-09-03T04:44:01;3.83;;;1.90;;
39924;SDS011;25592;49.986;11.618;2022-09-03T04:46:47;2.58;;;1.50;;
39924;SDS011;25592;49.986;11.618;2022-09-03T04:49:32;7.30;;;1.50;;
39924;SDS011;25592;49.986;11.618;2022-09-03T04:52:18;2.55;;;1.35;;
39924;SDS011;25592;49.986;11.618;2022-09-03T04:55:04;3.35;;;1.38;;
39924;SDS011;25592;49.986;11.618;2022-09-03T04:57:50;5.38;;;1.33;;
39924;SDS011;25592;49.986;11.618;2022-09-03T05:00:36;3.65;;;1.15;;
39924;SDS011;25592;49.986;11.618;2022-09-03T05:03:22;2.50;;;1.20;;
39924;SDS011;25592;49.986;11.618;2022-09-03T05:06:08;5.47;;;1.60;;
39924;SDS011;25592;49.986;11.618;2022-09-03T05:08:53;3.78;;;1.38;;
39924;SDS011;25592;49.986;11.618;2022-09-03T05:11:40;2.33;;;1.13;;
39924;SDS011;25592;49.986;11.618;2022-09-03T05:14:25;2.83;;;1.58;;
39924;SDS011;25592;49.986;11.618;2022-09-03T05:17:10;2.53;;;1.20;;
39924;SDS011;25592;49.986;11.618;2022-09-03T05:19:56;2.17;;;1.10;;
39924;SDS011;25592;49.986;11.618;2022-09-03T05:22:41;4.15;;;1.40;;
39924;SDS011;25592;49.986;11.618;2022-09-03T05:25:26;4.13;;;1.20;;
39924;SDS011;25592;49.986;11.618;2022-09-03T05:28:12;2.25;;;1.40;;
39924;SDS011;25592;49.986;11.618;2022-09-03T05:31:02;3.95;;;1.63;;
39924;SDS011;25592;49.986;11.618;2022-09-03T05:33:50;3.80;;;1.65;;
39924;SDS011;25592;49.986;11.618;2022-09-03T05:36:37;2.90;;;1.38;;
39924;SDS011;25592;49.986;11.618;2022-09-03T05:39:23;4.32;;;1.25;;
39924;SDS011;25592;49.986;11.618;2022-09-03T05:42:08;5.85;;;1.40;;
39924;SDS011;25592;49.986;11.618;2022-09-03T05:44:53;2.72;;;1.52;;
39924;SDS011;25592;49.986;11.618;2022-09-03T05:47:39;3.55;;;1.63;;
39924;SDS011;25592;49.986;11.618;2022-09-03T05:50:24;2.78;;;1.48;;
39924;SDS011;25592;49.986;11.618;2022-09-03T05:53:10;4.90;;;1.63;;
39924;SDS011;25592;49.986;11.618;2022-09-03T05:55:56;6.80;;;1.48;;
39924;SDS011;25592;49.986;11.618;2022-09-03T05:58:45;4.22;;;1.67;;
39924;SDS011;25592;49.986;11.618;2022-09-03T06:01:36;4.55;;;1.73;;
39924;SDS011;25592;49.986;11.618;2022-09-03T06:04:23;2.83;;;1.60;;
39924;SDS011;25592;49.986;11.618;2022-09-03T06:07:08;4.05;;;1.80;;
39924;SDS011;25592;49.986;11.618;2022-09-03T06:09:54;3.35;;;1.52;;
39924;SDS011;25592;49.986;11.618;2022-09-03T06:12:39;3.47;;;1.70;;
39924;SDS011;25592;49.986;11.618;2022-09-03T06:15:25;3.45;;;1.77;;
39924;SDS011;25592;49.986;11.618;2022-09-03T06:18:10;5.75;;;1.95;;
39924;SDS011;25592;49.986;11.618;2022-09-03T06:20:56;3.53;;;1.52;;
39924;SDS011;25592;49.986;11.618;2022-09-03T06:23:47;3.50;;;1.70;;
39924;SDS011;25592;49.986;11.618;2022-09-03T06:26:35;6.55;;;1.63;;
39924;SDS011;25592;49.986;11.618;2022-09-03T06:29:20;4.07;;;1.83;;
39924;SDS011;25592;49.986;11.618;2022-09-03T06:32:05;3.20;;;1.50;;
39924;SDS011;25592;49.986;11.618;2022-09-03T06:34:51;3.65;;;1.75;;
39924;SDS011;25592;49.986;11.618;2022-09-03T06:37:39;3.33;;;1.70;;
39924;SDS011;25592;49.986;11.618;2022-09-03T06:40:25;4.13;;;1.80;;
39924;SDS011;25592;49.986;11.618;2022-09-03T06:43:10;3.95;;;1.85;;
39924;SDS011;25592;49.986;11.618;2022-09-03T06:45:57;3.55;;;1.70;;
39924;SDS011;25592;49.986;11.618;2022-09-03T06:48:44;3.60;;;2.08;;
39924;SDS011;25592;49.986;11.618;2022-09-03T06:51:30;3.40;;;2.00;;
39924;SDS011;25592;49.986;11.618;2022-09-03T06:54:17;3.13;;;1.45;;
39924;SDS011;25592;49.986;11.618;2022-09-03T06:57:02;3.95;;;1.83;;
39924;SDS011;25592;49.986;11.618;2022-09-03T06:59:48;4.57;;;1.65;;
39924;SDS011;25592;49.986;11.618;2022-09-03T07:02:33;3.55;;;2.00;;
39924;SDS011;25592;49.986;11.618;2022-09-03T07:05:18;3.90;;;1.75;;
39924;SDS011;25592;49.986;11.618;2022-09-03T07:08:03;4.15;;;2.00;;
39924;SDS011;25592;49.986;11.618;2022-09-03T07:10:49;3.08;;;1.20;;
39924;SDS011;25592;49.986;11.618;2022-09-03T07:13:38;4.00;;;1.55;;
39924;SDS011;25592;49.986;11.618;2022-09-03T07:16:33;4.70;;;1.77;;
39924;SDS011;25592;49.986;11.618;2022-09-03T07:19:20;3.13;;;1.20;;
39924;SDS011;25592;49.986;11.618;2022-09-03T07:22:05;4.07;;;1.50;;
39924;SDS011;25592;49.986;11.618;2022-09-03T07:24:51;3.88;;;1.63;;
39924;SDS011;25592;49.986;11.618;2022-09-03T07:27:37;3.47;;;1.40;;
39924;SDS011;25592;49.986;11.618;2022-09-03T07:30:22;3.83;;;1.50;;
39924;SDS011;25592;49.986;11.618;2022-09-03T07:33:09;3.28;;;1.23;;
39924;SDS011;25592;49.986;11.618;2022-09-03T07:35:55;6.65;;;1.90;;
39924;SDS011;25592;49.986;11.618;2022-09-03T07:38:45;2.95;;;1.20;;
39924;SDS011;25592;49.986;11.618;2022-09-03T07:41:31;3.72;;;1.45;;
39924;SDS011;25592;49.986;11.618;2022-09-03T07:44:17;2.03;;;1.00;;
39924;SDS011;25592;49.986;11.618;2022-09-03T07:47:03;3.70;;;1.60;;
39924;SDS011;25592;49.986;11.618;2022-09-03T07:49:49;2.83;;;1.02;;
39924;SDS011;25592;49.986;11.618;2022-09-03T07:52:35;2.33;;;0.90;;
39924;SDS011;25592;49.986;11.618;2022-09-03T07:55:20;3.75;;;1.33;;
39924;SDS011;25592;49.986;11.618;2022-09-03T07:58:05;1.83;;;1.00;;
39924;SDS011;25592;49.986;11.618;2022-09-03T08:00:51;2.58;;;1.05;;
39924;SDS011;25592;49.986;11.618;2022-09-03T08:03:37;1.58;;;0.93;;
39924;SDS011;25592;49.986;11.618;2022-09-03T08:06:26;2.80;;;1.20;;
39924;SDS011;25592;49.986;11.618;2022-09-03T08:09:13;3.08;;;1.10;;
39924;SDS011;25592;49.986;11.618;2022-09-03T08:11:58;2.95;;;1.20;;
39924;SDS011;25592;49.986;11.618;2022-09-03T08:14:43;2.42;;;1.05;;
39924;SDS011;25592;49.986;11.618;2022-09-03T08:17:29;3.03;;;1.30;;
39924;SDS011;25592;49.986;11.618;2022-09-03T08:20:14;7.00;;;1.30;;
39924;SDS011;25592;49.986;11.618;2022-09-03T08:23:02;2.72;;;1.17;;
39924;SDS011;25592;49.986;11.618;2022-09-03T08:25:48;3.45;;;1.17;;
39924;SDS011;25592;49.986;11.618;2022-09-03T08:28:34;3.33;;;1.10;;
39924;SDS011;25592;49.986;11.618;2022-09-03T08:31:21;3.75;;;1.10;;
39924;SDS011;25592;49.986;11.618;2022-09-03T08:34:08;6.05;;;1.20;;
39924;SDS011;25592;49.986;11.618;2022-09-03T08:36:55;3.42;;;1.17;;
39924;SDS011;25592;49.986;11.618;2022-09-03T08:39:42;3.70;;;1.35;;
39924;SDS011;25592;49.986;11.618;2022-09-03T08:45:40;3.42;;;1.35;;
39924;SDS011;25592;49.986;11.618;2022-09-03T08:48:25;3.08;;;1.17;;
39924;SDS011;25592;49.986;11.618;2022-09-03T08:51:12;4.70;;;1.38;;
39924;SDS011;25592;49.986;11.618;2022-09-03T08:54:00;5.32;;;1.50;;
39924;SDS011;25592;49.986;11.618;2022-09-03T08:56:46;3.80;;;1.23;;
39924;SDS011;25592;49.986;11.618;2022-09-03T08:59:32;2.55;;;1.20;;
39924;SDS011;25592;49.986;11.618;2022-09-03T09:02:40;2.55;;;1.10;;
39924;SDS011;25592;49.986;11.618;2022-09-03T09:05:46;4.05;;;1.35;;
39924;SDS011;25592;49.986;11.618;2022-09-03T09:08:56;4.00;;;1.10;;
39924;SDS011;25592;49.986;11.618;2022-09-03T09:15:39;2.75;;;1.30;;
39924;SDS011;25592;49.986;11.618;2022-09-03T09:21:50;5.15;;;1.42;;
39924;SDS011;25592;49.986;11.618;2022-09-03T09:24:46;5.20;;;1.13;;
39924;SDS011;25592;49.986;11.618;2022-09-03T09:27:34;6.13;;;1.33;;
39924;SDS011;25592;49.986;11.618;2022-09-03T09:30:20;4.30;;;1.60;;
39924;SDS011;25592;49.986;11.618;2022-09-03T09:33:05;4.70;;;1.10;;
39924;SDS011;25592;49.986;11.618;2022-09-03T09:35:51;2.35;;;1.10;;
39924;SDS011;25592;49.986;11.618;2022-09-03T09:38:37;5.57;;;1.65;;
39924;SDS011;25592;49.986;11.618;2022-09-03T09:41:23;4.55;;;1.23;;
39924;SDS011;25592;49.986;11.618;2022-09-03T09:44:20;3.53;;;1.50;;
39924;SDS011;25592;49.986;11.618;2022-09-03T09:50:19;3.85;;;1.20;;
39924;SDS011;25592;49.986;11.618;2022-09-03T09:53:11;2.92;;;1.40;;
39924;SDS011;25592;49.986;11.618;2022-09-03T09:56:01;2.75;;;1.20;;
39924;SDS011;25592;49.986;11.618;2022-09-03T09:58:47;3.47;;;1.13;;
39924;SDS011;25592;49.986;11.618;2022-09-03T10:01:33;4.05;;;1.40;;
39924;SDS011;25592;49.986;11.618;2022-09-03T10:04:28;4.18;;;1.33;;
39924;SDS011;25592;49.986;11.618;2022-09-03T10:07:24;2.60;;;1.40;;
39924;SDS011;25592;49.986;11.618;2022-09-03T10:10:17;3.42;;;1.75;;
39924;SDS011;25592;49.986;11.618;2022-09-03T10:13:05;3.22;;;1.40;;
39924;SDS011;25592;49.986;11.618;2022-09-03T10:16:02;4.28;;;1.40;;
39924;SDS011;25592;49.986;11.618;2022-09-03T10:18:59;2.42;;;1.25;;
39924;SDS011;25592;49.986;11.618;2022-09-03T10:22:23;3.63;;;1.35;;
39924;SDS011;25592;49.986;11.618;2022-09-03T10:25:04;8.52;;;1.50;;
39924;SDS011;25592;49.986;11.618;2022-09-03T10:27:51;2.58;;;1.30;;
39924;SDS011;25592;49.986;11.618;2022-09-03T10:30:51;2.88;;;1.20;;
39924;SDS011;25592;49.986;11.618;2022-09-03T10:33:43;4.68;;;1.30;;
39924;SDS011;25592;49.986;11.618;2022-09-03T10:42:39;2.42;;;1.20;;
39924;SDS011;25592;49.986;11.618;2022-09-03T10:52:13;3.15;;;1.40;;
39924;SDS011;25592;49.986;11.618;2022-09-03T10:55:16;2.42;;;1.13;;
39924;SDS011;25592;49.986;11.618;2022-09-03T10:58:15;2.47;;;1.25;;
39924;SDS011;25592;49.986;11.618;2022-09-03T11:07:45;4.07;;;1.27;;
39924;SDS011;25592;49.986;11.618;2022-09-03T11:10:37;7.93;;;1.42;;
39924;SDS011;25592;49.986;11.618;2022-09-03T11:16:24;2.42;;;1.08;;
39924;SDS011;25592;49.986;11.618;2022-09-03T11:22:01;2.60;;;1.20;;
39924;SDS011;25592;49.986;11.618;2022-09-03T11:24:50;3.90;;;1.52;;
39924;SDS011;25592;49.986;11.618;2022-09-03T11:30:39;5.13;;;1.33;;
39924;SDS011;25592;49.986;11.618;2022-09-03T11:33:44;2.38;;;1.20;;
39924;SDS011;25592;49.986;11.618;2022-09-03T11:37:03;3.05;;;1.20;;
39924;SDS011;25592;49.986;11.618;2022-09-03T11:40:15;3.22;;;1.25;;
39924;SDS011;25592;49.986;11.618;2022-09-03T11:43:11;2.55;;;1.30;;
39924;SDS011;25592;49.986;11.618;2022-09-03T11:46:12;3.80;;;1.40;;
39924;SDS011;25592;49.986;11.618;2022-09-03T11:49:09;3.05;;;1.15;;
39924;SDS011;25592;49.986;11.618;2022-09-03T11:51:58;6.15;;;1.40;;
39924;SDS011;25592;49.986;11.618;2022-09-03T11:54:45;4.93;;;1.98;;
39924;SDS011;25592;49.986;11.618;2022-09-03T11:57:31;4.28;;;1.60;;
39924;SDS011;25592;49.986;11.618;2022-09-03T12:00:17;6.05;;;1.60;;
39924;SDS011;25592;49.986;11.618;2022-09-03T12:03:06;9.05;;;1.50;;
39924;SDS011;25592;49.986;11.618;2022-09-03T12:18:28;2.53;;;1.23;;
39924;SDS011;25592;49.986;11.618;2022-09-03T12:21:15;2.63;;;1.15;;
39924;SDS011;25592;49.986;11.618;2022-09-03T12:24:01;2.33;;;1.17;;
39924;SDS011;25592;49.986;11.618;2022-09-03T12:26:46;2.72;;;1.30;;
39924;SDS011;25592;49.986;11.618;2022-09-03T12:29:32;3.20;;;1.45;;
39924;SDS011;25592;49.986;11.618;2022-09-03T12:32:17;3.10;;;1.10;;
39924;SDS011;25592;49.986;11.618;2022-09-03T12:35:15;3.47;;;1.45;;
39924;SDS011;25592;49.986;11.618;2022-09-03T12:38:24;3.45;;;1.08;;
39924;SDS011;25592;49.986;11.618;2022-09-03T12:41:21;6.65;;;1.38;;
39924;SDS011;25592;49.986;11.618;2022-09-03T12:44:12;1.58;;;1.05;;
39924;SDS011;25592;49.986;11.618;2022-09-03T12:50:17;5.30;;;1.00;;
39924;SDS011;25592;49.986;11.618;2022-09-03T12:53:04;2.70;;;1.42;;
39924;SDS011;25592;49.986;11.618;2022-09-03T12:55:51;2.75;;;1.50;;
39924;SDS011;25592;49.986;11.618;2022-09-03T12:58:44;2.03;;;1.13;;
39924;SDS011;25592;49.986;11.618;2022-09-03T13:01:44;4.22;;;1.38;;
39924;SDS011;25592;49.986;11.618;2022-09-03T13:04:36;3.50;;;1.40;;
39924;SDS011;25592;49.986;11.618;2022-09-03T13:07:28;4.57;;;1.20;;
39924;SDS011;25592;49.986;11.618;2022-09-03T13:10:29;2.70;;;1.20;;
39924;SDS011;25592;49.986;11.618;2022-09-03T13:23:09;2.47;;;1.50;;
39924;SDS011;25592;49.986;11.618;2022-09-03T13:35:29;5.18;;;1.30;;
39924;SDS011;25592;49.986;11.618;2022-09-03T13:41:42;3.45;;;1.30;;
39924;SDS011;25592;49.986;11.618;2022-09-03T13:44:46;3.03;;;1.40;;
39924;SDS011;25592;49.986;11.618;2022-09-03T13:51:13;7.80;;;1.30;;
39924;SDS011;25592;49.986;11.618;2022-09-03T14:03:51;5.10;;;1.73;;
39924;SDS011;25592;49.986;11.618;2022-09-03T14:06:45;4.07;;;1.50;;
39924;SDS011;25592;49.986;11.618;2022-09-03T14:09:41;4.78;;;1.60;;
39924;SDS011;25592;49.986;11.618;2022-09-03T14:12:48;3.03;;;1.27;;
39924;SDS011;25592;49.986;11.618;2022-09-03T14:15:49;2.22;;;1.25;;
39924;SDS011;25592;49.986;11.618;2022-09-03T14:22:38;3.65;;;1.23;;
39924;SDS011;25592;49.986;11.618;2022-09-03T14:25:17;3.58;;;1.48;;
39924;SDS011;25592;49.986;11.618;2022-09-03T14:28:12;2.45;;;1.20;;
39924;SDS011;25592;49.986;11.618;2022-09-03T14:34:11;3.30;;;1.23;;
39924;SDS011;25592;49.986;11.618;2022-09-03T14:58:19;3.42;;;1.90;;
39924;SDS011;25592;49.986;11.618;2022-09-03T15:01:12;3.75;;;1.90;;
39924;SDS011;25592;49.986;11.618;2022-09-03T15:07:23;3.50;;;1.77;;
39924;SDS011;25592;49.986;11.618;2022-09-03T15:10:41;4.65;;;1.75;;
39924;SDS011;25592;49.986;11.618;2022-09-03T15:13:32;6.78;;;1.35;;
39924;SDS011;25592;49.986;11.618;2022-09-03T15:17:05;3.03;;;1.20;;
39924;SDS011;25592;49.986;11.618;2022-09-03T15:26:14;2.95;;;1.50;;
39924;SDS011;25592;49.986;11.618;2022-09-03T15:32:13;2.13;;;1.30;;
39924;SDS011;25592;49.986;11.618;2022-09-03T15:35:29;2.55;;;1.30;;
39924;SDS011;25592;49.986;11.618;2022-09-03T15:42:03;3.22;;;1.30;;
39924;SDS011;25592;49.986;11.618;2022-09-03T15:44:55;4.30;;;1.50;;
39924;SDS011;25592;49.986;11.618;2022-09-03T15:47:50;9.77;;;1.58;;
39924;SDS011;25592;49.986;11.618;2022-09-03T15:56:52;3.17;;;1.50;;
39924;SDS011;25592;49.986;11.618;2022-09-03T16:00:06;6.47;;;1.50;;
39924;SDS011;25592;49.986;11.618;2022-09-03T16:03:09;4.38;;;1.42;;
39924;SDS011;25592;49.986;11.618;2022-09-03T16:06:07;5.43;;;1.83;;
39924;SDS011;25592;49.986;11.618;2022-09-03T16:15:15;2.63;;;1.47;;
39924;SDS011;25592;49.986;11.618;2022-09-03T16:26:54;7.32;;;2.22;;
39924;SDS011;25592;49.986;11.618;2022-09-03T16:29:53;4.43;;;2.00;;
39924;SDS011;25592;49.986;11.618;2022-09-03T16:32:46;4.25;;;1.80;;
39924;SDS011;25592;49.986;11.618;2022-09-03T16:38:53;6.50;;;2.00;;
39924;SDS011;25592;49.986;11.618;2022-09-03T17:00:03;5.38;;;2.97;;
39924;SDS011;25592;49.986;11.618;2022-09-03T17:06:15;5.45;;;2.33;;
39924;SDS011;25592;49.986;11.618;2022-09-03T17:21:13;5.63;;;2.15;;
39924;SDS011;25592;49.986;11.618;2022-09-03T17:33:53;3.20;;;2.20;;
39924;SDS011;25592;49.986;11.618;2022-09-03T17:40:19;6.72;;;1.83;;
39924;SDS011;25592;49.986;11.618;2022-09-03T17:43:23;2.95;;;1.75;;
39924;SDS011;25592;49.986;11.618;2022-09-03T17:49:20;5.85;;;2.30;;
39924;SDS011;25592;49.986;11.618;2022-09-03T17:52:20;5.40;;;1.92;;
39924;SDS011;25592;49.986;11.618;2022-09-03T17:58:18;4.45;;;2.00;;
39924;SDS011;25592;49.986;11.618;2022-09-03T18:07:13;4.70;;;2.40;;
39924;SDS011;25592;49.986;11.618;2022-09-03T18:10:05;3.63;;;2.55;;
39924;SDS011;25592;49.986;11.618;2022-09-03T18:16:25;3.85;;;2.35;;
39924;SDS011;25592;49.986;11.618;2022-09-03T18:26:12;4.65;;;2.50;;
39924;SDS011;25592;49.986;11.618;2022-09-03T18:32:38;6.05;;;2.35;;
39924;SDS011;25592;49.986;11.618;2022-09-03T18:35:43;3.17;;;2.15;;
39924;SDS011;25592;49.986;11.618;2022-09-03T18:38:48;6.22;;;2.20;;
39924;SDS011;25592;49.986;11.618;2022-09-03T18:41:56;5.78;;;2.40;;
39924;SDS011;25592;49.986;11.618;2022-09-03T18:48:45;6.68;;;2.40;;
39924;SDS011;25592;49.986;11.618;2022-09-03T18:52:18;7.38;;;2.15;;
39924;SDS011;25592;49.986;11.618;2022-09-03T18:55:37;6.80;;;3.05;;
39924;SDS011;25592;49.986;11.618;2022-09-03T19:02:46;4.70;;;3.08;;
39924;SDS011;25592;49.986;11.618;2022-09-03T19:09:32;6.60;;;3.47;;
39924;SDS011;25592;49.986;11.618;2022-09-03T19:13:04;6.93;;;3.47;;
39924;SDS011;25592;49.986;11.618;2022-09-03T19:16:22;5.90;;;2.90;;
39924;SDS011;25592;49.986;11.618;2022-09-03T19:22:49;4.90;;;2.90;;
39924;SDS011;25592;49.986;11.618;2022-09-03T19:25:53;9.68;;;3.72;;
39924;SDS011;25592;49.986;11.618;2022-09-03T19:29:09;6.78;;;3.33;;
39924;SDS011;25592;49.986;11.618;2022-09-03T19:36:21;4.28;;;3.05;;
39924;SDS011;25592;49.986;11.618;2022-09-03T19:46:11;4.43;;;3.35;;
39924;SDS011;25592;49.986;11.618;2022-09-03T19:49:39;4.25;;;3.40;;
39924;SDS011;25592;49.986;11.618;2022-09-03T19:53:12;5.60;;;2.95;;
39924;SDS011;25592;49.986;11.618;2022-09-03T19:56:27;5.55;;;3.28;;
39924;SDS011;25592;49.986;11.618;2022-09-03T19:59:38;5.45;;;2.97;;
39924;SDS011;25592;49.986;11.618;2022-09-03T20:05:50;4.63;;;2.90;;
39924;SDS011;25592;49.986;11.618;2022-09-03T20:08:58;5.22;;;3.22;;
39924;SDS011;25592;49.986;11.618;2022-09-03T20:12:08;4.10;;;2.50;;
39924;SDS011;25592;49.986;11.618;2022-09-03T20:14:55;3.65;;;2.55;;
39924;SDS011;25592;49.986;11.618;2022-09-03T20:17:59;4.72;;;2.67;;
39924;SDS011;25592;49.986;11.618;2022-09-03T20:36:32;3.45;;;1.95;;
39924;SDS011;25592;49.986;11.618;2022-09-03T20:39:35;4.00;;;2.50;;
39924;SDS011;25592;49.986;11.618;2022-09-03T20:49:08;3.95;;;2.40;;
39924;SDS011;25592;49.986;11.618;2022-09-03T21:01:01;3.55;;;2.42;;
39924;SDS011;25592;49.986;11.618;2022-09-03T21:04:26;3.50;;;2.42;;
39924;SDS011;25592;49.986;11.618;2022-09-03T21:20:06;3.35;;;2.20;;
39924;SDS011;25592;49.986;11.618;2022-09-03T21:23:23;3.47;;;2.55;;
39924;SDS011;25592;49.986;11.618;2022-09-03T21:26:33;7.13;;;2.90;;
39924;SDS011;25592;49.986;11.618;2022-09-03T21:29:24;3.95;;;2.20;;
39924;SDS011;25592;49.986;11.618;2022-09-03T21:32:17;3.97;;;2.67;;
39924;SDS011;25592;49.986;11.618;2022-09-03T21:35:26;4.68;;;2.75;;
39924;SDS011;25592;49.986;11.618;2022-09-03T21:41:21;3.78;;;2.55;;
39924;SDS011;25592;49.986;11.618;2022-09-03T21:44:16;4.50;;;2.40;;
39924;SDS011;25592;49.986;11.618;2022-09-03T21:47:09;3.95;;;2.25;;
39924;SDS011;25592;49.986;11.618;2022-09-03T21:50:19;4.03;;;2.22;;
39924;SDS011;25592;49.986;11.618;2022-09-03T21:56:19;3.92;;;2.10;;
39924;SDS011;25592;49.986;11.618;2022-09-03T22:02:35;4.32;;;2.28;;
39924;SDS011;25592;49.986;11.618;2022-09-03T22:05:21;3.22;;;2.00;;
39924;SDS011;25592;49.986;11.618;2022-09-03T22:08:22;6.43;;;1.70;;
39924;SDS011;25592;49.986;11.618;2022-09-03T22:14:14;4.45;;;2.33;;
39924;SDS011;25592;49.986;11.618;2022-09-03T22:17:02;3.83;;;1.92;;
39924;SDS011;25592;49.986;11.618;2022-09-03T22:19:54;2.85;;;1.80;;
39924;SDS011;25592;49.986;11.618;2022-09-03T22:25:35;3.42;;;2.00;;
39924;SDS011;25592;49.986;11.618;2022-09-03T22:28:41;3.70;;;2.20;;
39924;SDS011;25592;49.986;11.618;2022-09-03T22:40:38;3.00;;;1.98;;
39924;SDS011;25592;49.986;11.618;2022-09-03T22:43:46;3.08;;;1.90;;
39924;SDS011;25592;49.986;11.618;2022-09-03T22:50:13;3.38;;;2.20;;
39924;SDS011;25592;49.986;11.618;2022-09-03T22:53:29;3.78;;;2.05;;
39924;SDS011;25592;49.986;11.618;2022-09-03T22:56:33;4.18;;;2.63;;
39924;SDS011;25592;49.986;11.618;2022-09-03T22:59:26;3.13;;;2.10;;
39924;SDS011;25592;49.986;11.618;2022-09-03T23:02:23;4.70;;;2.13;;
39924;SDS011;25592;49.986;11.618;2022-09-03T23:08:12;3.40;;;2.05;;
39924;SDS011;25592;49.986;11.618;2022-09-03T23:11:06;5.10;;;2.58;;
39924;SDS011;25592;49.986;11.618;2022-09-03T23:14:01;4.22;;;2.55;;
39924;SDS011;25592;49.986;11.618;2022-09-03T23:16:50;4.00;;;2.50;;
39924;SDS011;25592;49.986;11.618;2022-09-03T23:20:04;5.30;;;2.25;;
39924;SDS011;25592;49.986;11.618;2022-09-03T23:22:59;8.33;;;2.70;;
39924;SDS011;25592;49.986;11.618;2022-09-03T23:26:22;7.30;;;2.60;;
39924;SDS011;25592;49.986;11.618;2022-09-03T23:29:25;4.05;;;2.75;;
39924;SDS011;25592;49.986;11.618;2022-09-03T23:32:30;4.60;;;2.80;;
39924;SDS011;25592;49.986;11.618;2022-09-03T23:35:17;3.85;;;2.40;;
39924;SDS011;25592;49.986;11.618;2022-09-03T23:38:21;3.88;;;2.80;;
39924;SDS011;25592;49.986;11.618;2022-09-03T23:41:21;6.63;;;3.00;;